ラパス の空港の天気 - METARとTAF

エル・アルト国際空港 ( SLLP / LPB ) - ボリビア ラパス
飛行場実況気象(Metar)
観測時間12/14 02:00 BOT (12/14 06:00 UTC)
風向・風速北北西 2m/s
視程10km以上
天気現象
なし
気温7℃
湿度76%
気圧1037hPa
METARSLLP 140600Z 33004KT 300V020 9999 NSC 07/03 Q1037
過去の天気等 Google飛行場航空写真 Wunderground天気予報

過去48時間のMETAR

飛行場予報(TAF)
発表時間: 12/14 00:40 BOT (12/14 04:40 UTC)
予報対象時間: 14日2時 BOT ~ 15日2時 BOT
風向・風速東北東 3m/s
14日8時 BOT ~ 14日10時 BOT に徐々に
風向・風速南東 5m/s
視程10km以上
天気現象運行に影響にある天気現象が終了
全天の4割程度の雲 雲底高度 460m
少しの積乱雲 雲底高度 520m
全天の4割程度の雲 雲底高度 2130m
14日14時 BOT ~ 14日18時 BOT に一時的に
視程5000m
天気現象雷雨
TAF SLLP 140440Z 1406/1506 07005KT 3000E VCFG FEW002 SCT012 TX18/1420Z TN04/1410Z
BECMG 1412/1414 13010KT 9999 NSW SCT015 FEW017CB SCT070
TEMPO 1418/1422 5000 TSRA